Latest Weather Observations for King Island Airport

IDT60801

Issued at 7:31 pm EST Friday 26 May 2017 (issued every 30 minutes, with the page automatically refreshed every 10 minutes)

About weather observations | Map of weather stations | Latest weather observations for TAS | Other Formats
Station Details ID: 098017 Name: KING ISLAND AIRPORT Lat: -39.88 Lon: 143.88 Height: 37.0 m
Data from the previous 72 hours. | See also: Recent months at King Island Airport
Date/Time
EST
Temp
°C
App
Temp
°C
Dew
Point
°C
Rel
Hum
%
Delta-T
°C
Wind Press
QNH
hPa
Press
MSL
hPa
Rain since
9am
mm
Dir  Spd
km/h
Gust
km/h
Spd
kts
Gust
kts
26/07:30pm 11.9 8.7 7.0 72 2.3 N 13 19 7 10 1019.0 1019.0 0.0
26/07:00pm 11.8 8.6 6.7 71 2.4 NNE 13 19 7 10 1018.9 1018.9 0.0
26/06:30pm 12.4 8.7 6.2 66 2.9 N 15 24 8 13 1019.0 1019.0 0.0
26/06:00pm 11.6 8.2 5.9 68 2.7 N 13 17 7 9 1019.0 1019.0 0.0
26/05:30pm 12.2 7.6 5.6 64 3.1 NNW 19 26 10 14 1018.9 1018.9 0.0
26/05:00pm 12.8 9.1 6.2 64 3.1 N 15 19 8 10 1018.7 1018.7 0.0
26/04:30pm 13.2 9.1 6.1 62 3.4 NNW 17 26 9 14 1018.8 1018.8 0.0
26/04:00pm 13.5 9.8 6.1 61 3.5 N 15 20 8 11 1019.0 1019.0 0.0
26/03:30pm 13.7 9.2 6.1 60 3.6 NNW 19 26 10 14 1019.1 1019.1 0.0
26/03:00pm 13.7 9.6 6.1 60 3.6 N 17 24 9 13 1019.3 1019.3 0.0
26/02:30pm 14.1 10.2 6.9 62 3.5 N 17 22 9 12 1019.4 1019.4 0.0
26/02:00pm 14.4 10.2 5.7 56 4.1 NNW 17 22 9 12 1019.7 1019.7 0.0
26/01:30pm 14.2 10.0 5.8 57 4.0 NNW 17 22 9 12 1020.0 1020.0 0.0
26/01:00pm 14.3 10.3 4.9 53 4.4 NW 15 19 8 10 1020.3 1020.3 0.0
26/12:30pm 14.1 10.8 6.5 60 3.7 W 13 19 7 10 1020.7 1020.7 0.0
26/12:00pm 14.1 10.7 6.0 58 3.9 WNW 13 17 7 9 1021.2 1021.2 0.0
26/11:30am 14.1 10.5 5.2 55 4.2 W 13 15 7 8 1021.4 1021.4 0.0
26/11:00am 13.8 10.4 5.9 59 3.7 WNW 13 22 7 12 1021.8 1021.8 0.0
26/10:30am 13.6 10.1 5.3 57 3.9 W 13 24 7 13 1021.9 1021.9 0.0
26/10:00am 13.3 8.5 5.7 60 3.6 WNW 20 28 11 15 1021.8 1021.8 0.0
26/09:30am 13.1 9.3 6.0 62 3.4 WNW 15 24 8 13 1021.8 1021.8 0.0
26/09:00am 13.0 8.8 5.9 62 3.3 WNW 17 20 9 11 1021.6 1021.6 2.2
26/08:30am 12.4 8.1 5.3 62 3.3 W 17 24 9 13 1021.5 1021.5 2.2
26/08:00am 12.2 8.7 5.4 63 3.1 W 13 19 7 10 1021.2 1021.2 2.2
26/07:30am 11.6 7.6 5.0 64 3.0 W 15 19 8 10 1020.9 1020.9 2.2
26/07:00am 10.8 7.2 4.9 67 2.7 WSW 13 19 7 10 1020.5 1020.5 2.2
26/06:30am 10.9 6.4 4.4 64 2.9 WSW 17 20 9 11 1020.3 1020.3 2.2
26/06:00am 10.8 7.1 4.7 66 2.7 WSW 13 17 7 9 1020.1 1020.1 2.2
26/05:30am 11.2 7.0 5.5 68 2.6 WSW 17 22 9 12 1019.8 1019.8 2.0
26/05:00am 11.7 7.5 5.6 66 2.8 WSW 17 26 9 14 1019.6 1019.6 2.0
26/04:30am 11.5 7.1 6.6 72 2.3 WSW 19 24 10 13 1019.3 1019.3 2.0
26/04:00am 11.7 8.2 7.0 73 2.2 WSW 15 22 8 12 1019.1 1019.1 2.0
26/03:30am 11.5 9.0 8.2 80 1.6 WSW 11 17 6 9 1019.0 1019.0 2.0
26/03:00am 12.1 8.8 8.2 77 1.9 SW 15 19 8 10 1018.8 1018.8 2.0
26/02:30am 12.3 9.2 7.2 71 2.5 WSW 13 17 7 9 1018.7 1018.7 2.0
26/02:00am 11.7 8.2 7.0 73 2.2 WSW 15 20 8 11 1018.6 1018.6 2.0
26/01:30am 12.1 8.2 7.2 72 2.4 SW 17 22 9 12 1018.6 1018.6 2.0
26/01:00am 12.3 7.9 7.2 71 2.5 SW 20 28 11 15 1018.6 1018.6 2.0
26/12:30am 12.2 8.9 8.1 76 2.0 SW 15 20 8 11 1018.6 1018.6 2.0
26/12:00am 11.6 7.7 7.3 75 2.1 SW 17 22 9 12 1018.4 1018.4 2.0
 
Date/Time
EST
Temp
°C
App
Temp
°C
Dew
Point
°C
Rel
Hum
%
Delta-T
°C
Wind Press
QNH
hPa
Press
MSL
hPa
Rain since
9am
mm
Dir  Spd
km/h
Gust
km/h
Spd
kts
Gust
kts
25/11:30pm 12.0 8.3 7.9 76 2.0 SW 17 20 9 11 1018.2 1018.2 2.0
25/11:00pm 12.1 8.0 8.0 76 2.0 SW 19 22 10 12 1018.1 1018.1 2.0
25/10:30pm 12.6 8.0 8.3 75 2.1 SW 22 32 12 17 1017.9 1017.9 2.0
25/10:00pm 13.0 8.2 8.9 76 2.1 SW 24 32 13 17 1017.7 1017.7 2.0
25/09:30pm 12.9 8.0 8.6 75 2.1 SW 24 33 13 18 1017.4 1017.4 2.0
25/09:00pm 13.0 8.9 10.2 83 1.4 SW 22 32 12 17 1017.3 1017.3 2.0
25/08:30pm 13.1 9.1 10.6 85 1.3 WSW 22 30 12 16 1016.9 1016.9 2.0
25/08:03pm 13.7 8.9 11.6 87 1.1 WSW 28 46 15 25 1016.6 1016.6 2.0
25/08:00pm 14.0 9.5 11.5 85 1.3 WSW 26 46 14 25 1016.6 1016.6 2.0
25/07:30pm 13.6 8.5 10.6 82 1.6 WSW 28 37 15 20 1016.4 1016.4 2.0
25/07:00pm 13.9 9.0 11.2 84 1.4 WSW 28 39 15 21 1016.0 1016.0 2.0
25/06:30pm 14.2 9.4 12.8 91 0.8 W 30 41 16 22 1015.7 1015.7 2.0
25/06:11pm 14.4 9.6 12.8 90 0.9 W 30 37 16 20 1015.4 1015.4 2.0
25/06:00pm 14.3 9.8 12.7 90 0.9 W 28 37 15 20 1015.1 1015.1 2.0
25/05:52pm 14.4 9.7 13.1 92 0.7 W 30 37 16 20 1015.0 1015.0 1.8
25/05:30pm 14.7 9.5 12.7 88 1.1 W 32 41 17 22 1014.8 1014.8 1.8
25/05:00pm 14.7 8.4 12.4 86 1.3 WNW 37 52 20 28 1014.6 1014.6 1.8
25/04:30pm 14.9 9.2 13.1 89 1.0 WNW 35 50 19 27 1014.4 1014.4 1.8
25/04:02pm 15.0 8.7 13.4 90 0.9 WNW 39 57 21 31 1014.3 1014.3 1.8
25/04:00pm 15.2 8.5 13.4 89 1.0 WNW 41 57 22 31 1014.3 1014.3 1.8
25/03:51pm 15.3 8.1 13.2 87 1.2 WNW 43 54 23 29 1014.2 1014.2 1.8
25/03:30pm 15.4 8.3 13.9 91 0.8 NW 44 54 24 29 1014.1 1014.1 1.8
25/03:00pm 14.7 7.7 13.7 94 0.6 NW 43 61 23 33 1014.0 1014.0 1.8
25/02:53pm 15.1 8.6 14.0 93 0.6 NW 41 61 22 33 1014.1 1014.1 1.8
25/02:30pm 14.6 8.7 13.5 93 0.6 NW 37 52 20 28 1014.4 1014.4 1.8
25/02:00pm 14.8 8.3 12.8 88 1.1 NW 39 52 21 28 1014.6 1014.6 1.4
25/01:59pm 14.8 8.3 12.8 88 1.1 NW 39 52 21 28 1014.6 1014.6 1.4
25/01:30pm 15.2 7.8 12.5 84 1.5 NNW 43 56 23 30 1014.9 1014.9 1.4
25/01:00pm 15.8 8.3 12.7 82 1.7 NNW 44 54 24 29 1015.1 1015.1 1.4
25/12:30pm 15.5 8.1 12.3 81 1.8 NNW 43 56 23 30 1015.5 1015.5 1.4
25/12:00pm 14.8 7.2 11.9 83 1.6 NNW 43 56 23 30 1016.0 1016.0 1.4
25/11:30am 14.9 9.0 12.4 85 1.4 NNW 35 43 19 23 1016.4 1016.4 1.4
25/11:00am 14.5 8.3 12.7 89 1.0 NNW 37 48 20 26 1016.7 1016.7 1.4
25/10:30am 13.5 8.0 12.4 93 0.6 NW 33 52 18 28 1016.9 1016.9 1.2
25/10:29am 13.5 8.0 12.4 93 0.6 NW 33 52 18 28 1016.9 1016.9 1.2
25/10:24am 13.3 7.3 12.0 92 0.7 NW 35 52 19 28 1016.9 1016.9 1.2
25/10:09am 12.9 7.1 11.5 91 0.7 NW 33 54 18 29 1017.0 1017.0 1.2
25/10:06am 13.4 8.3 12.0 91 0.8 NW 30 54 16 29 1017.1 1017.1 1.0
25/10:00am 13.8 9.1 12.0 89 1.0 NW 28 35 15 19 1016.8 1016.8 0.8
25/09:47am 13.6 9.8 12.3 92 0.7 NW 24 35 13 19 1016.8 1016.8 0.8
25/09:30am 12.7 7.9 11.8 94 0.5 NW 28 46 15 25 1017.0 1017.0 0.8
25/09:29am 12.8 8.1 11.9 94 0.5 NW 28 46 15 25 1017.0 1017.0 0.8
25/09:15am 13.1 7.0 11.8 92 0.7 NW 35 46 19 25 1017.0 1017.0 0.4
25/09:00am 13.8 8.1 11.1 84 1.4 NW 32 37 17 20 1016.9 1016.9 2.4
25/08:30am 13.7 9.1 12.3 91 0.8 NW 28 35 15 19 1017.0 1017.0 2.4
25/08:00am 13.2 8.2 11.1 87 1.1 NW 28 33 15 18 1016.9 1016.9 2.4
25/07:56am 12.9 7.1 10.8 87 1.1 NW 32 41 17 22 1017.0 1017.0 2.4
25/07:52am 12.7 6.4 10.9 89 0.9 NW 35 46 19 25 1017.0 1017.0 2.4
25/07:44am 12.4 6.5 11.3 93 0.6 NW 33 46 18 25 1017.0 1017.0 2.4
25/07:42am 12.9 7.4 12.0 94 0.5 WNW 32 44 17 24 1017.0 1017.0 2.4
25/07:30am 13.1 8.5 12.2 94 0.5 WNW 28 35 15 19 1016.9 1016.9 2.2
25/07:04am 12.5 8.1 11.7 95 0.4 NW 26 39 14 21 1016.9 1016.9 2.0
25/07:00am 12.8 8.5 12.0 95 0.4 NW 26 33 14 18 1016.8 1016.8 2.0
25/06:45am 13.3 7.9 12.2 93 0.6 WNW 32 48 17 26 1016.8 1016.8 2.0
25/06:42am 13.3 8.9 11.7 90 0.9 WNW 26 44 14 24 1016.7 1016.7 2.0
25/06:30am 13.1 9.8 11.0 87 1.1 NW 19 20 10 11 1016.6 1016.6 2.0
25/06:00am 12.7 8.6 11.6 93 0.6 WNW 24 30 13 16 1016.9 1016.9 2.0
25/05:35am 12.7 8.5 11.1 90 0.8 NW 24 33 13 18 1016.7 1016.7 2.0
25/05:30am 12.5 7.2 11.2 92 0.7 NW 30 39 16 21 1016.7 1016.7 2.0
25/05:21am 12.1 6.2 11.2 94 0.5 WNW 33 44 18 24 1016.8 1016.8 2.0
25/05:00am 12.4 9.2 11.8 96 0.3 W 20 30 11 16 1016.8 1016.8 1.8
25/04:44am 12.2 8.9 11.6 96 0.3 W 20 33 11 18 1016.7 1016.7 1.8
25/04:30am 12.3 6.6 11.7 96 0.3 WNW 33 41 18 22 1016.8 1016.8 1.8
25/04:25am 12.6 7.8 11.7 94 0.5 WNW 28 41 15 22 1016.7 1016.7 1.8
25/04:00am 12.5 7.6 11.4 93 0.6 WNW 28 35 15 19 1016.7 1016.7 1.6
25/03:59am 12.5 7.6 11.4 93 0.6 WNW 28 35 15 19 1016.7 1016.7 1.6
25/03:40am 12.8 7.7 11.9 94 0.5 WNW 30 37 16 20 1016.8 1016.8 1.6
25/03:30am 12.9 7.4 11.8 93 0.6 NW 32 37 17 20 1016.8 1016.8 1.6
25/03:00am 13.2 8.5 10.7 85 1.3 WNW 26 33 14 18 1016.8 1016.8 1.6
25/02:30am 13.2 10.4 11.3 88 1.0 W 17 30 9 16 1016.9 1016.9 1.6
25/02:22am 12.9 10.6 11.6 92 0.7 W 15 24 8 13 1016.9 1016.9 1.6
25/02:12am 12.9 9.2 11.5 91 0.7 W 22 33 12 18 1017.0 1017.0 1.4
25/02:00am 13.5 9.3 11.2 86 1.2 WNW 24 30 13 16 1017.0 1017.0 1.4
25/01:30am 13.3 8.0 11.2 87 1.1 WNW 30 41 16 22 1017.0 1017.0 1.4
25/01:00am 13.2 8.5 10.6 84 1.4 W 26 33 14 18 1017.1 1017.1 1.4
25/12:30am 13.3 8.7 11.2 87 1.1 W 26 33 14 18 1017.2 1017.2 1.4
25/12:00am 13.1 8.4 10.6 85 1.3 WNW 26 35 14 19 1017.4 1017.4 1.4
 
Date/Time
EST
Temp
°C
App
Temp
°C
Dew
Point
°C
Rel
Hum
%
Delta-T
°C
Wind Press
QNH
hPa
Press
MSL
hPa
Rain since
9am
mm
Dir  Spd
km/h
Gust
km/h
Spd
kts
Gust
kts
24/11:30pm 13.3 9.8 10.8 85 1.3 W 20 30 11 16 1017.2 1017.2 1.4
24/11:00pm 13.0 9.7 11.6 91 0.7 WNW 20 30 11 16 1017.2 1017.2 1.4
24/10:30pm 13.4 9.8 10.6 83 1.5 W 20 28 11 15 1017.4 1017.4 1.4
24/10:00pm 13.0 9.9 10.4 84 1.3 W 17 28 9 15 1017.6 1017.6 1.4
24/09:30pm 12.9 9.6 10.8 87 1.1 W 19 28 10 15 1017.6 1017.6 1.4
24/09:00pm 13.7 10.3 10.5 81 1.7 W 19 28 10 15 1017.4 1017.4 1.2
24/08:30pm 13.6 9.8 9.8 78 2.0 WSW 20 30 11 16 1017.3 1017.3 1.2
24/08:00pm 13.0 8.7 9.4 79 1.8 WSW 22 32 12 17 1017.2 1017.2 1.2
24/07:30pm 12.7 8.6 10.1 84 1.3 WSW 22 30 12 16 1017.0 1017.0 1.2
24/07:00pm 13.2 8.1 10.7 85 1.3 WSW 28 41 15 22 1016.8 1016.8 1.2
24/06:30pm 13.4 8.5 9.8 79 1.9 W 26 35 14 19 1016.4 1016.4 1.2
24/06:00pm 12.9 7.6 9.7 81 1.6 W 28 35 15 19 1016.2 1016.2 1.2
24/05:30pm 12.9 7.2 9.7 81 1.6 W 30 39 16 21 1015.9 1015.9 1.2
24/05:00pm 12.8 8.4 10.3 85 1.3 W 24 33 13 18 1015.6 1015.6 1.2
24/04:30pm 13.5 9.2 10.7 83 1.5 WSW 24 37 13 20 1015.3 1015.3 1.2
24/04:00pm 13.8 8.0 9.6 76 2.2 W 30 39 16 21 1014.9 1014.9 1.2
24/03:30pm 13.5 8.7 10.3 81 1.7 W 26 35 14 19 1014.7 1014.7 1.2
24/03:00pm 12.6 6.7 11.3 92 0.7 W 33 50 18 27 1014.4 1014.4 1.2
24/02:30pm 13.7 8.3 10.9 83 1.5 W 30 39 16 21 1014.1 1014.1 1.2
24/02:00pm 14.1 7.5 8.5 69 2.8 W 33 48 18 26 1013.8 1013.8 1.2
24/01:30pm 14.8 7.9 8.7 67 3.1 W 35 50 19 27 1013.6 1013.6 1.2
24/01:07pm 14.4 7.9 8.1 66 3.1 WSW 32 50 17 27 1013.5 1013.5 1.2
24/01:00pm 14.5 8.5 8.7 68 2.9 WSW 30 41 16 22 1013.5 1013.5 1.2
24/12:30pm 14.3 8.3 8.5 68 2.9 WSW 30 39 16 21 1013.5 1013.5 1.2
24/12:00pm 13.9 7.5 8.7 71 2.6 W 32 43 17 23 1013.6 1013.6 1.2
24/11:30am 14.1 6.6 7.9 66 3.1 WSW 37 50 20 27 1013.7 1013.7 1.2
24/11:00am 13.8 6.1 7.3 65 3.2 WSW 37 52 20 28 1013.6 1013.6 1.2
24/10:51am 13.6 5.5 6.9 64 3.2 WSW 39 57 21 31 1013.6 1013.6 1.2
24/10:31am 13.1 6.9 9.5 79 1.8 WSW 32 41 17 22 1013.4 1013.4 1.2
24/10:30am 12.9 6.7 9.2 78 1.9 WSW 32 41 17 22 1013.4 1013.4 1.2
24/10:14am 11.6 5.3 9.7 88 1.0 W 33 52 18 28 1013.6 1013.6 1.0
24/10:11am 12.6 6.6 10.1 85 1.3 W 32 52 17 28 1013.5 1013.5 0.6
24/10:00am 13.2 6.9 8.9 75 2.2 W 32 44 17 24 1013.2 1013.2 0.4
24/09:48am 12.1 6.6 9.1 82 1.5 W 28 39 15 21 1013.0 1013.0 0.4
24/09:31am 11.5 4.2 10.2 92 0.7 W 39 61 21 33 1012.9 1012.9 0.4
24/09:30am 11.5 4.2 10.1 91 0.7 W 39 61 21 33 1013.0 1013.0 0.2
24/09:22am 13.6 8.3 10.0 79 1.9 W 28 46 15 25 1012.6 1012.6 0.0
24/09:00am 12.1 7.4 9.3 83 1.4 W 24 35 13 19 1012.3 1012.3 6.4
24/08:48am 11.5 5.9 8.7 83 1.4 WSW 28 41 15 22 1012.4 1012.4 6.4
24/08:43am 11.0 4.4 8.6 85 1.2 WSW 33 52 18 28 1012.4 1012.4 6.4
24/08:35am 11.0 3.5 9.6 91 0.7 WSW 39 54 21 29 1012.4 1012.4 6.4
24/08:30am 11.7 5.2 10.3 91 0.7 W 35 54 19 29 1012.2 1012.2 6.4
24/08:27am 12.4 6.3 9.8 84 1.3 W 32 52 17 28 1012.1 1012.1 6.2
24/08:00am 12.3 7.1 8.8 79 1.8 WSW 26 35 14 19 1011.5 1011.5 6.2
24/07:30am 12.1 7.0 9.3 83 1.4 W 26 33 14 18 1011.0 1011.0 6.2
24/07:05am 13.3 7.8 9.2 76 2.1 W 28 48 15 26 1010.8 1010.8 6.2
24/07:00am 13.1 7.6 9.0 76 2.1 WSW 28 41 15 22 1010.6 1010.6 6.2
24/06:38am 13.2 7.3 8.9 75 2.2 W 30 48 16 26 1010.4 1010.4 6.2
24/06:30am 13.1 7.2 9.2 77 2.0 W 30 41 16 22 1010.3 1010.3 6.2
24/06:00am 12.9 7.5 9.5 80 1.7 W 28 41 15 22 1009.8 1009.9 6.2
24/05:30am 12.6 7.4 10.3 86 1.2 W 28 37 15 20 1009.4 1009.5 6.2
24/05:07am 13.4 7.4 10.2 81 1.7 W 32 50 17 27 1009.1 1009.2 6.2
24/05:00am 13.2 6.2 9.8 80 1.7 WNW 37 50 20 27 1009.0 1009.0 6.2
24/04:30am 13.3 6.2 10.8 85 1.3 WNW 39 52 21 28 1008.8 1008.8 6.2
24/04:00am 13.4 5.4 10.6 83 1.5 WNW 43 54 23 29 1008.9 1008.9 6.2
24/03:38am 13.4 6.9 10.2 81 1.7 WNW 35 56 19 30 1008.8 1008.8 6.2
24/03:30am 13.0 6.9 10.4 84 1.4 WNW 33 46 18 25 1008.9 1008.9 6.2
24/03:00am 13.0 5.9 9.6 80 1.7 WNW 37 48 20 26 1008.6 1008.6 6.2
24/02:30am 12.4 6.1 11.1 92 0.7 NW 35 44 19 24 1008.8 1008.8 6.2
24/02:18am 12.5 4.8 11.4 93 0.6 NW 43 61 23 33 1008.9 1008.9 6.0
24/02:11am 12.6 3.9 11.2 91 0.7 NW 48 61 26 33 1008.9 1008.9 5.6
24/02:00am 13.7 6.4 11.4 86 1.2 NW 41 52 22 28 1008.7 1008.7 4.8
24/01:30am 12.9 7.0 11.1 89 0.9 NW 33 41 18 22 1009.2 1009.3 4.8
24/01:29am 12.9 7.0 11.1 89 0.9 NW 33 41 18 22 1009.2 1009.3 4.8
24/01:00am 12.1 6.4 11.0 93 0.6 NW 32 41 17 22 1009.5 1009.6 4.8
24/12:52am 12.1 6.7 11.0 93 0.6 NW 30 39 16 21 1009.6 1009.7 4.8
24/12:31am 11.2 6.8 10.4 95 0.4 NW 24 30 13 16 1009.7 1009.8 4.8
24/12:30am 11.2 7.2 10.4 95 0.4 NW 22 30 12 16 1009.7 1009.8 4.8
24/12:03am 11.7 6.1 10.3 91 0.7 NNW 30 52 16 28 1010.5 1010.5 2.4
24/12:02am 12.2 7.1 10.6 90 0.8 N 28 52 15 28 1010.5 1010.5 2.0
24/12:01am 13.1 9.1 11.7 91 0.7 N 24 39 13 21 1010.3 1010.3 1.4
24/12:00am 13.0 8.9 11.6 91 0.7 N 24 39 13 21 1010.1 1010.1 1.2
 
Date/Time
EST
Temp
°C
App
Temp
°C
Dew
Point
°C
Rel
Hum
%
Delta-T
°C
Wind Press
QNH
hPa
Press
MSL
hPa
Rain since
9am
mm
Dir  Spd
km/h
Gust
km/h
Spd
kts
Gust
kts
23/11:30pm 13.1 10.0 11.5 90 0.9 N 19 24 10 13 1010.1 1010.1 0.2
23/11:00pm 12.9 10.5 11.3 90 0.8 N 15 19 8 10 1010.5 1010.5 0.2
23/10:30pm 13.4 9.2 11.1 86 1.2 NNW 24 32 13 17 1010.9 1010.9 0.2
23/10:00pm 12.9 10.4 11.0 88 1.0 N 15 19 8 10 1011.4 1011.4 0.2
23/09:30pm 12.8 7.9 11.2 90 0.8 NNW 28 35 15 19 1011.8 1011.8 0.2
23/09:00pm 13.4 7.0 10.8 84 1.4 NW 35 46 19 25 1011.9 1011.9 0.0
23/08:30pm 14.0 9.4 12.2 89 1.0 NNW 28 50 15 27 1011.9 1011.9 0.0
23/08:26pm 14.4 11.3 12.3 87 1.1 NNW 20 50 11 27 1012.0 1012.0 0.0
23/08:00pm 14.1 12.5 11.6 85 1.3 NNE 11 15 6 8 1011.7 1011.7 0.0

Other Formats:

Comma delimited format used in spreadsheet applications
http://www.bom.gov.au/fwo/IDT60801/IDT60801.94850.axf

JavaScript Object Notation format (JSON) in row-major order
http://www.bom.gov.au/fwo/IDT60801/IDT60801.94850.json